createdAt,value
2023-05-22T00:00:53.136Z,1014.94
2023-05-22T00:01:53.141Z,1014.96
2023-05-22T00:02:53.276Z,1014.95
2023-05-22T00:03:53.091Z,1014.92
2023-05-22T00:04:53.144Z,1014.92
2023-05-22T00:05:53.071Z,1014.88
2023-05-22T00:06:53.043Z,1014.92
2023-05-22T00:07:53.051Z,1014.93
2023-05-22T00:08:53.023Z,1014.95
2023-05-22T00:09:53.012Z,1014.91
2023-05-22T00:10:52.996Z,1014.92
2023-05-22T00:11:52.990Z,1014.93
2023-05-22T00:12:53.004Z,1014.91
2023-05-22T00:13:52.967Z,1014.93
2023-05-22T00:14:52.941Z,1014.93
2023-05-22T00:15:52.934Z,1014.90
2023-05-22T00:16:52.991Z,1014.88
2023-05-22T00:17:52.933Z,1014.91
2023-05-22T00:18:52.918Z,1014.88
2023-05-22T00:19:52.884Z,1014.89
2023-05-22T00:20:52.870Z,1014.88
2023-05-22T00:21:52.880Z,1014.87
2023-05-22T00:22:52.851Z,1014.88
2023-05-22T00:23:52.826Z,1014.90
2023-05-22T00:24:52.812Z,1014.89
2023-05-22T00:25:52.803Z,1014.88
2023-05-22T00:26:52.813Z,1014.84
2023-05-22T00:27:52.783Z,1014.88
2023-05-22T00:28:52.772Z,1014.87
2023-05-22T00:29:52.749Z,1014.84
2023-05-22T00:30:52.737Z,1014.89
2023-05-22T00:31:52.782Z,1014.87
2023-05-22T00:32:52.760Z,1014.87
2023-05-22T00:33:52.728Z,1014.85
2023-05-22T00:34:52.685Z,1014.83
2023-05-22T00:35:52.684Z,1014.88
2023-05-22T00:36:52.685Z,1014.83
2023-05-22T00:37:52.644Z,1014.84
2023-05-22T00:38:52.638Z,1014.84
2023-05-22T00:39:52.628Z,1014.85
2023-05-22T00:40:52.610Z,1014.83
2023-05-22T00:41:52.637Z,1014.81
2023-05-22T00:42:52.588Z,1014.83
2023-05-22T00:43:52.572Z,1014.82
2023-05-22T00:44:52.553Z,1014.81
2023-05-22T00:45:52.572Z,1014.81
2023-05-22T00:46:52.665Z,1014.83
2023-05-22T00:47:52.571Z,1014.83
2023-05-22T00:48:52.528Z,1014.85
2023-05-22T00:49:52.497Z,1014.81
2023-05-22T00:50:52.495Z,1014.81
2023-05-22T00:51:52.485Z,1014.82
2023-05-22T00:52:52.453Z,1014.83
2023-05-22T00:53:52.462Z,1014.81
2023-05-22T00:54:52.426Z,1014.79
2023-05-22T00:55:52.444Z,1014.76
2023-05-22T00:57:55.021Z,1014.87
2023-05-22T00:58:55.989Z,1014.85
2023-05-22T00:59:55.980Z,1014.76
2023-05-22T01:00:55.985Z,1014.82
2023-05-22T01:01:56.025Z,1014.81
2023-05-22T01:02:56.088Z,1014.82
2023-05-22T01:03:56.106Z,1014.86
2023-05-22T01:04:55.952Z,1014.88
2023-05-22T01:05:55.931Z,1014.85
2023-05-22T01:06:55.880Z,1014.85
2023-05-22T01:07:55.905Z,1014.76
2023-05-22T01:08:55.874Z,1014.74
2023-05-22T01:09:55.886Z,1014.76
2023-05-22T01:10:55.867Z,1014.74
2023-05-22T01:11:55.867Z,1014.81
2023-05-22T01:12:55.804Z,1014.74
2023-05-22T01:13:55.803Z,1014.75
2023-05-22T01:14:55.790Z,1014.79
2023-05-22T01:15:55.846Z,1014.80
2023-05-22T01:16:55.745Z,1014.80
2023-05-22T01:17:55.814Z,1014.77
2023-05-22T01:18:55.772Z,1014.76
2023-05-22T01:19:55.762Z,1014.77
2023-05-22T01:20:55.724Z,1014.79
2023-05-22T01:21:55.694Z,1014.74
2023-05-22T01:22:55.717Z,1014.75
2023-05-22T01:23:55.680Z,1014.73
2023-05-22T01:24:55.676Z,1014.74
2023-05-22T01:25:55.649Z,1014.67
2023-05-22T01:26:55.654Z,1014.70
2023-05-22T01:27:55.607Z,1014.68
2023-05-22T01:28:55.623Z,1014.65
2023-05-22T01:29:55.612Z,1014.64
2023-05-22T01:30:55.575Z,1014.62
2023-05-22T01:31:55.549Z,1014.64
2023-05-22T01:32:55.593Z,1014.65
2023-05-22T01:33:55.644Z,1014.66
2023-05-22T01:34:55.547Z,1014.68
2023-05-22T01:35:55.493Z,1014.70
2023-05-22T01:36:55.538Z,1014.69
2023-05-22T01:37:55.468Z,1014.71
2023-05-22T01:38:55.592Z,1014.70
2023-05-22T01:39:55.498Z,1014.68
2023-05-22T01:40:55.431Z,1014.70
2023-05-22T01:41:55.422Z,1014.64
2023-05-22T01:42:55.424Z,1014.68
2023-05-22T01:43:55.412Z,1014.68
2023-05-22T01:44:55.370Z,1014.68
2023-05-22T01:45:55.429Z,1014.72
2023-05-22T01:46:55.360Z,1014.69
2023-05-22T01:47:55.413Z,1014.71
2023-05-22T01:48:55.362Z,1014.70
2023-05-22T01:49:55.317Z,1014.69
2023-05-22T01:50:55.299Z,1014.66
2023-05-22T01:51:55.330Z,1014.70
2023-05-22T01:52:55.291Z,1014.73
2023-05-22T01:53:55.272Z,1014.70
2023-05-22T01:54:55.260Z,1014.68
2023-05-22T01:55:55.234Z,1014.67
2023-05-22T01:56:55.232Z,1014.72
2023-05-22T01:57:55.219Z,1014.70
2023-05-22T01:58:55.191Z,1014.71
2023-05-22T01:59:55.190Z,1014.67
2023-05-22T02:00:55.605Z,1014.70
2023-05-22T02:01:55.179Z,1014.72
2023-05-22T02:02:55.252Z,1014.73
2023-05-22T02:03:55.157Z,1014.73
2023-05-22T02:04:55.109Z,1014.77
2023-05-22T02:05:55.108Z,1014.75
2023-05-22T02:06:55.133Z,1014.73
2023-05-22T02:07:55.095Z,1014.73
2023-05-22T02:08:55.057Z,1014.73
2023-05-22T02:09:55.080Z,1014.73
2023-05-22T02:10:55.055Z,1014.74
2023-05-22T02:11:55.029Z,1014.70
2023-05-22T02:12:55.042Z,1014.74
2023-05-22T02:13:55.000Z,1014.69
2023-05-22T02:14:54.991Z,1014.71
2023-05-22T02:15:55.047Z,1014.75
2023-05-22T02:16:55.017Z,1014.75
2023-05-22T02:17:54.981Z,1014.73
2023-05-22T02:18:54.980Z,1014.69
2023-05-22T02:19:54.914Z,1014.71
2023-05-22T02:20:54.911Z,1014.70
2023-05-22T02:21:54.928Z,1014.69
2023-05-22T02:22:54.890Z,1014.65
2023-05-22T02:23:54.867Z,1014.65
2023-05-22T02:24:54.856Z,1014.68
2023-05-22T02:25:54.836Z,1014.68
2023-05-22T02:26:54.834Z,1014.65
2023-05-22T02:27:54.864Z,1014.69
2023-05-22T02:28:54.788Z,1014.66
2023-05-22T02:29:54.788Z,1014.65
2023-05-22T02:30:54.854Z,1014.67
2023-05-22T02:31:54.781Z,1014.65
2023-05-22T02:32:54.794Z,1014.69
2023-05-22T02:33:54.786Z,1014.69
2023-05-22T02:34:54.951Z,1014.68
2023-05-22T02:35:54.718Z,1014.66
2023-05-22T02:36:54.753Z,1014.66
2023-05-22T02:37:54.689Z,1014.65
2023-05-22T02:38:54.660Z,1014.66
2023-05-22T02:39:54.669Z,1014.68
2023-05-22T02:40:54.639Z,1014.66
2023-05-22T02:41:54.657Z,1014.62
2023-05-22T02:42:54.619Z,1014.67
2023-05-22T02:43:54.610Z,1014.65
2023-05-22T02:44:54.590Z,1014.66
2023-05-22T02:45:54.603Z,1014.67
2023-05-22T02:46:54.657Z,1014.61
2023-05-22T02:47:54.575Z,1014.68
2023-05-22T02:48:54.577Z,1014.66
2023-05-22T02:49:54.525Z,1014.65
2023-05-22T02:50:54.548Z,1014.68
2023-05-22T02:51:54.552Z,1014.69
2023-05-22T02:52:54.471Z,1014.65
2023-05-22T02:53:54.470Z,1014.66
2023-05-22T02:54:54.466Z,1014.68
2023-05-22T02:55:54.454Z,1014.67
2023-05-22T02:56:54.425Z,1014.69
2023-05-22T02:57:54.437Z,1014.69
2023-05-22T02:58:54.389Z,1014.65
2023-05-22T02:59:54.390Z,1014.68
2023-05-22T03:00:54.427Z,1014.69
2023-05-22T03:01:54.434Z,1014.71
2023-05-22T03:02:54.387Z,1014.69
2023-05-22T03:03:54.462Z,1014.74
2023-05-22T03:04:54.343Z,1014.73
2023-05-22T03:05:54.249Z,1014.73
2023-05-22T03:06:54.232Z,1014.70
2023-05-22T03:07:54.255Z,1014.70
2023-05-22T03:08:54.221Z,1014.73
2023-05-22T03:09:54.200Z,1014.73
2023-05-22T03:10:54.194Z,1014.75
2023-05-22T03:11:54.165Z,1014.75
2023-05-22T03:12:54.168Z,1014.72
2023-05-22T03:13:54.157Z,1014.70
2023-05-22T03:14:54.160Z,1014.76
2023-05-22T03:15:54.141Z,1014.73
2023-05-22T03:16:54.199Z,1014.73
2023-05-22T03:17:54.145Z,1014.73
2023-05-22T03:18:54.078Z,1014.73
2023-05-22T03:19:54.139Z,1014.76
2023-05-22T03:20:54.045Z,1014.75
2023-05-22T03:21:54.027Z,1014.75
2023-05-22T03:22:54.048Z,1014.78
2023-05-22T03:23:54.028Z,1014.73
2023-05-22T03:24:54.010Z,1014.71
2023-05-22T03:25:54.018Z,1014.72
2023-05-22T03:26:53.978Z,1014.73
2023-05-22T03:27:53.961Z,1014.77
2023-05-22T03:28:54.015Z,1014.73
2023-05-22T03:29:53.948Z,1014.73
2023-05-22T03:30:53.920Z,1014.75
2023-05-22T03:31:53.930Z,1014.73
2023-05-22T03:32:53.929Z,1014.71
2023-05-22T03:33:53.949Z,1014.75
2023-05-22T03:34:53.919Z,1014.74
2023-05-22T03:35:53.856Z,1014.73
2023-05-22T03:36:53.858Z,1014.76
2023-05-22T03:37:53.863Z,1014.71
2023-05-22T03:38:53.826Z,1014.76
2023-05-22T03:39:53.796Z,1014.74
2023-05-22T03:40:53.812Z,1014.72
2023-05-22T03:41:53.773Z,1014.69
2023-05-22T03:42:54.063Z,1014.74
2023-05-22T03:43:53.821Z,1014.74
2023-05-22T03:44:53.721Z,1014.72
2023-05-22T03:45:53.755Z,1014.74
2023-05-22T03:46:53.715Z,1014.67
2023-05-22T03:47:53.708Z,1014.74
2023-05-22T03:48:53.674Z,1014.69
2023-05-22T03:49:53.688Z,1014.76
2023-05-22T03:50:53.644Z,1014.75
2023-05-22T03:51:53.637Z,1014.72
2023-05-22T03:52:53.685Z,1014.74
2023-05-22T03:53:53.606Z,1014.72
2023-05-22T03:54:53.647Z,1014.70
2023-05-22T03:55:53.604Z,1014.71
2023-05-22T03:56:53.564Z,1014.71
2023-05-22T03:57:53.577Z,1014.73
2023-05-22T03:58:53.562Z,1014.70
2023-05-22T03:59:53.526Z,1014.78
2023-05-22T04:00:53.522Z,1014.72
2023-05-22T04:01:53.562Z,1014.76
2023-05-22T04:02:53.564Z,1014.71
2023-05-22T04:03:53.471Z,1014.71
2023-05-22T04:04:53.676Z,1014.70
2023-05-22T04:05:53.468Z,1014.68
2023-05-22T04:06:53.430Z,1014.72
2023-05-22T04:07:53.457Z,1014.66
2023-05-22T04:08:53.405Z,1014.73
2023-05-22T04:09:53.426Z,1014.73
2023-05-22T04:10:53.395Z,1014.70
2023-05-22T04:11:53.383Z,1014.72
2023-05-22T04:12:53.352Z,1014.74
2023-05-22T04:13:53.399Z,1014.68
2023-05-22T04:14:53.345Z,1014.75
2023-05-22T04:15:53.328Z,1014.74
2023-05-22T04:16:53.331Z,1014.73
2023-05-22T04:17:53.309Z,1014.75
2023-05-22T04:18:53.347Z,1014.76
2023-05-22T04:19:53.280Z,1014.80
2023-05-22T04:20:53.273Z,1014.75
2023-05-22T04:21:53.240Z,1014.72
2023-05-22T04:22:53.240Z,1014.78
2023-05-22T04:23:53.229Z,1014.76
2023-05-22T04:24:53.194Z,1014.75
2023-05-22T04:25:53.204Z,1014.81
2023-05-22T04:26:53.178Z,1014.75
2023-05-22T04:27:53.161Z,1014.74
2023-05-22T04:28:53.141Z,1014.79
2023-05-22T04:29:53.300Z,1014.78
2023-05-22T04:30:53.132Z,1014.81
2023-05-22T04:31:53.110Z,1014.84
2023-05-22T04:32:53.119Z,1014.81
2023-05-22T04:33:53.100Z,1014.82
2023-05-22T04:34:53.049Z,1014.83
2023-05-22T04:35:53.055Z,1014.85
2023-05-22T04:36:53.031Z,1014.82
2023-05-22T04:37:53.033Z,1014.86
2023-05-22T04:38:53.064Z,1014.89
2023-05-22T04:39:53.016Z,1014.91
2023-05-22T04:40:52.988Z,1014.89
2023-05-22T04:41:53.007Z,1014.87
2023-05-22T04:42:52.948Z,1014.93
2023-05-22T04:43:52.956Z,1014.94
2023-05-22T04:44:52.981Z,1014.90
2023-05-22T04:45:52.928Z,1014.94
2023-05-22T04:46:52.936Z,1014.92
2023-05-22T04:47:53.054Z,1014.91
2023-05-22T04:48:52.870Z,1014.92
2023-05-22T04:49:52.879Z,1014.94
2023-05-22T04:50:52.888Z,1014.92
2023-05-22T04:51:52.841Z,1014.98
2023-05-22T04:52:52.819Z,1014.93
2023-05-22T04:53:52.845Z,1014.96
2023-05-22T04:54:52.803Z,1014.95
2023-05-22T04:55:52.782Z,1014.93
2023-05-22T04:56:52.821Z,1014.91
2023-05-22T04:57:52.788Z,1014.90
2023-05-22T04:58:52.733Z,1014.87
2023-05-22T04:59:52.760Z,1014.89
2023-05-22T05:00:52.989Z,1014.91
2023-05-22T05:01:52.689Z,1014.89
2023-05-22T05:02:52.758Z,1014.88
2023-05-22T05:03:52.729Z,1014.90
2023-05-22T05:04:52.688Z,1014.89
2023-05-22T05:05:52.676Z,1014.94
2023-05-22T05:06:52.635Z,1014.94
2023-05-22T05:07:52.614Z,1014.97
2023-05-22T05:08:52.639Z,1014.93
2023-05-22T05:09:52.587Z,1014.97
2023-05-22T05:10:52.582Z,1014.98
2023-05-22T05:11:52.617Z,1014.96
2023-05-22T05:12:52.558Z,1014.93
2023-05-22T05:13:52.559Z,1014.96
2023-05-22T05:14:52.607Z,1014.97
2023-05-22T05:15:52.508Z,1014.99
2023-05-22T05:16:52.518Z,1014.99
2023-05-22T05:17:52.587Z,1014.95
2023-05-22T05:18:52.501Z,1014.94
2023-05-22T05:19:52.457Z,1014.94
2023-05-22T05:20:52.499Z,1014.96
2023-05-22T05:21:52.428Z,1014.97
2023-05-22T05:22:52.441Z,1014.94
2023-05-22T05:23:52.417Z,1014.96
2023-05-22T05:24:52.396Z,1014.99
2023-05-22T05:25:52.379Z,1015.00
2023-05-22T05:26:52.409Z,1015.00
2023-05-22T05:27:52.399Z,1014.97
2023-05-22T05:28:52.334Z,1014.98
2023-05-22T05:29:52.312Z,1015.00
2023-05-22T05:30:52.338Z,1014.97
2023-05-22T05:31:52.337Z,1015.04
2023-05-22T05:32:52.319Z,1014.96
2023-05-22T05:33:52.288Z,1014.98
2023-05-22T05:34:52.256Z,1014.97
2023-05-22T05:35:52.239Z,1014.97
2023-05-22T05:36:52.296Z,1015.00
2023-05-22T05:37:52.207Z,1014.95
2023-05-22T05:38:52.229Z,1014.98
2023-05-22T05:39:52.215Z,1015.01
2023-05-22T05:40:52.203Z,1015.00
2023-05-22T05:41:52.185Z,1015.01
2023-05-22T05:42:52.166Z,1014.99
2023-05-22T05:43:52.181Z,1014.99
2023-05-22T05:44:52.122Z,1015.00
2023-05-22T05:45:52.115Z,1015.00
2023-05-22T05:46:52.145Z,1014.98
2023-05-22T05:47:52.160Z,1014.93
2023-05-22T05:48:52.085Z,1014.96
2023-05-22T05:49:52.058Z,1015.02
2023-05-22T05:50:52.077Z,1015.00
2023-05-22T05:51:52.241Z,1014.98
2023-05-22T05:52:52.039Z,1015.00
2023-05-22T05:53:52.062Z,1014.95
2023-05-22T05:54:52.034Z,1014.96
2023-05-22T05:55:51.971Z,1014.94
2023-05-22T05:56:52.004Z,1014.95
2023-05-22T05:57:51.973Z,1014.98
2023-05-22T05:58:51.944Z,1014.96
2023-05-22T05:59:51.963Z,1014.95
2023-05-22T06:00:51.923Z,1015.00
2023-05-22T06:01:51.927Z,1015.00
2023-05-22T06:02:52.024Z,1015.00
2023-05-22T06:03:52.028Z,1015.00
2023-05-22T06:04:51.869Z,1015.01
2023-05-22T06:05:51.874Z,1015.00
2023-05-22T06:06:51.948Z,1014.98
2023-05-22T06:07:51.818Z,1015.01
2023-05-22T06:08:51.824Z,1015.04
2023-05-22T06:09:51.843Z,1014.99
2023-05-22T06:10:51.853Z,1014.99
2023-05-22T06:11:51.793Z,1015.00
2023-05-22T06:12:51.777Z,1015.06
2023-05-22T06:13:51.755Z,1014.99
2023-05-22T06:14:51.745Z,1014.99
2023-05-22T06:15:51.767Z,1015.03
2023-05-22T06:16:51.803Z,1015.04
2023-05-22T06:17:51.740Z,1015.03
2023-05-22T06:18:51.717Z,1015.01
2023-05-22T06:19:51.680Z,1015.09
2023-05-22T06:20:51.691Z,1015.07
2023-05-22T06:21:52.228Z,1015.03
2023-05-22T06:22:51.661Z,1015.06
2023-05-22T06:23:51.641Z,1015.05
2023-05-22T06:24:51.624Z,1015.02
2023-05-22T06:25:51.608Z,1015.07
2023-05-22T06:26:51.581Z,1015.05
2023-05-22T06:27:51.556Z,1015.06
2023-05-22T06:28:51.579Z,1015.04
2023-05-22T06:29:51.563Z,1015.04
2023-05-22T06:30:51.525Z,1015.09
2023-05-22T06:31:51.560Z,1015.07
2023-05-22T06:32:51.564Z,1015.08
2023-05-22T06:33:51.666Z,1015.05
2023-05-22T06:34:51.491Z,1015.08
2023-05-22T06:35:51.451Z,1015.07
2023-05-22T06:36:51.461Z,1015.07
2023-05-22T06:37:51.785Z,1015.08
2023-05-22T06:38:51.441Z,1015.04
2023-05-22T06:39:51.434Z,1015.04
2023-05-22T06:40:51.399Z,1015.12
2023-05-22T06:41:51.377Z,1015.10
2023-05-22T06:42:51.377Z,1015.09
2023-05-22T06:43:51.378Z,1015.09
2023-05-22T06:44:51.374Z,1015.06
2023-05-22T06:45:51.347Z,1015.07
2023-05-22T06:46:51.333Z,1015.10
2023-05-22T06:47:51.316Z,1015.12
2023-05-22T06:48:51.325Z,1015.11
2023-05-22T06:49:51.329Z,1015.14
2023-05-22T06:50:51.256Z,1015.16
2023-05-22T06:51:51.270Z,1015.12
2023-05-22T06:52:51.315Z,1015.16
2023-05-22T06:53:51.277Z,1015.17
2023-05-22T06:54:51.223Z,1015.12
2023-05-22T06:55:51.210Z,1015.15
2023-05-22T06:56:51.175Z,1015.17
2023-05-22T06:57:51.167Z,1015.20
2023-05-22T06:58:51.182Z,1015.16
2023-05-22T06:59:51.136Z,1015.16
2023-05-22T07:00:51.147Z,1015.15
2023-05-22T07:01:51.138Z,1015.15
2023-05-22T07:02:51.213Z,1015.18
2023-05-22T07:03:51.128Z,1015.19
2023-05-22T07:04:51.089Z,1015.20
2023-05-22T07:05:51.104Z,1015.22
2023-05-22T07:06:51.063Z,1015.18
2023-05-22T07:07:51.048Z,1015.19
2023-05-22T07:08:51.037Z,1015.21
2023-05-22T07:09:51.018Z,1015.22
2023-05-22T07:10:50.998Z,1015.21
2023-05-22T07:11:51.012Z,1015.22
2023-05-22T07:12:51.000Z,1015.23
2023-05-22T07:13:50.975Z,1015.19
2023-05-22T07:14:50.950Z,1015.23
2023-05-22T07:15:50.923Z,1015.31
2023-05-22T07:16:51.088Z,1015.27
2023-05-22T07:17:50.996Z,1015.29
2023-05-22T07:18:50.925Z,1015.27
2023-05-22T07:19:50.880Z,1015.32
2023-05-22T07:20:50.928Z,1015.31
2023-05-22T07:21:50.864Z,1015.31
2023-05-22T07:22:50.836Z,1015.29
2023-05-22T07:23:50.815Z,1015.27
2023-05-22T07:24:50.826Z,1015.25
2023-05-22T07:25:50.809Z,1015.29
2023-05-22T07:26:50.789Z,1015.38
2023-05-22T07:27:50.768Z,1015.36
2023-05-22T07:28:50.773Z,1015.32
2023-05-22T07:29:50.745Z,1015.36
2023-05-22T07:30:50.767Z,1015.37
2023-05-22T07:31:50.770Z,1015.38
2023-05-22T07:32:50.726Z,1015.39
2023-05-22T07:33:50.694Z,1015.37
2023-05-22T07:34:50.706Z,1015.36
2023-05-22T07:35:50.656Z,1015.38
2023-05-22T07:36:50.800Z,1015.41
2023-05-22T07:37:50.629Z,1015.35
2023-05-22T07:38:50.630Z,1015.42
2023-05-22T07:39:50.596Z,1015.47
2023-05-22T07:40:50.611Z,1015.44
2023-05-22T07:41:50.604Z,1015.38
2023-05-22T07:42:50.582Z,1015.42
2023-05-22T07:43:50.545Z,1015.38
2023-05-22T07:44:50.547Z,1015.39
2023-05-22T07:45:50.579Z,1015.39
2023-05-22T07:46:50.559Z,1015.41
2023-05-22T07:47:50.543Z,1015.41
2023-05-22T07:48:50.497Z,1015.41
2023-05-22T07:49:50.489Z,1015.45
2023-05-22T07:50:50.474Z,1015.43
2023-05-22T07:51:50.470Z,1015.46
2023-05-22T07:52:50.433Z,1015.45
2023-05-22T07:53:50.480Z,1015.49
2023-05-22T07:54:50.447Z,1015.48
2023-05-22T07:55:50.393Z,1015.42
2023-05-22T07:56:50.391Z,1015.46
2023-05-22T07:57:50.410Z,1015.43
2023-05-22T07:58:50.389Z,1015.40
2023-05-22T07:59:50.340Z,1015.40
2023-05-22T08:00:50.350Z,1015.43
2023-05-22T08:01:50.321Z,1015.41
2023-05-22T08:02:50.415Z,1015.42
2023-05-22T08:03:50.451Z,1015.44
2023-05-22T08:04:50.384Z,1015.42
2023-05-22T08:05:50.376Z,1015.45
2023-05-22T08:06:50.887Z,1015.43
2023-05-22T08:07:50.236Z,1015.43
2023-05-22T08:08:50.269Z,1015.48
2023-05-22T08:09:50.216Z,1015.46
2023-05-22T08:11:03.204Z,1015.49
2023-05-22T08:11:50.221Z,1015.45
2023-05-22T08:12:50.202Z,1015.46
2023-05-22T08:13:50.183Z,1015.48
2023-05-22T08:14:50.141Z,1015.47
2023-05-22T08:15:50.141Z,1015.48
2023-05-22T08:16:50.176Z,1015.46
2023-05-22T08:17:50.180Z,1015.47
2023-05-22T08:18:50.121Z,1015.51
2023-05-22T08:19:50.136Z,1015.48
2023-05-22T08:20:50.093Z,1015.51
2023-05-22T08:21:50.040Z,1015.49
2023-05-22T08:22:50.264Z,1015.47
2023-05-22T08:23:50.022Z,1015.45
2023-05-22T08:24:50.027Z,1015.49
2023-05-22T08:25:50.006Z,1015.49
2023-05-22T08:26:50.000Z,1015.50
2023-05-22T08:27:50.001Z,1015.49
2023-05-22T08:28:50.048Z,1015.50
2023-05-22T08:29:49.993Z,1015.47
2023-05-22T08:30:49.944Z,1015.51
2023-05-22T08:31:50.052Z,1015.53
2023-05-22T08:32:50.023Z,1015.52
2023-05-22T08:33:49.901Z,1015.54
2023-05-22T08:34:49.896Z,1015.55
2023-05-22T08:35:49.875Z,1015.51
2023-05-22T08:36:49.901Z,1015.53
2023-05-22T08:37:49.845Z,1015.54
2023-05-22T08:38:49.842Z,1015.53
2023-05-22T08:39:49.834Z,1015.58
2023-05-22T08:40:49.926Z,1015.54
2023-05-22T08:41:49.796Z,1015.50
2023-05-22T08:42:49.796Z,1015.51
2023-05-22T08:43:49.762Z,1015.53
2023-05-22T08:44:49.805Z,1015.50
2023-05-22T08:45:49.739Z,1015.49
2023-05-22T08:46:49.816Z,1015.49
2023-05-22T08:47:49.748Z,1015.45
2023-05-22T08:48:49.698Z,1015.49
2023-05-22T08:49:49.684Z,1015.51
2023-05-22T08:50:49.697Z,1015.53
2023-05-22T08:51:49.677Z,1015.50
2023-05-22T08:52:49.670Z,1015.50
2023-05-22T08:53:49.683Z,1015.52
2023-05-22T08:54:49.617Z,1015.51
2023-05-22T08:55:49.782Z,1015.45
2023-05-22T08:56:56.694Z,1015.50
2023-05-22T08:57:49.607Z,1015.47
2023-05-22T08:58:49.584Z,1015.50
2023-05-22T08:59:49.598Z,1015.51
2023-05-22T09:00:49.592Z,1015.53
2023-05-22T09:01:49.574Z,1015.50
2023-05-22T09:02:49.602Z,1015.55
2023-05-22T09:03:49.539Z,1015.51
2023-05-22T09:04:49.530Z,1015.55
2023-05-22T09:05:49.534Z,1015.53
2023-05-22T09:06:49.465Z,1015.51
2023-05-22T09:07:49.464Z,1015.56
2023-05-22T09:08:51.367Z,1015.51
2023-05-22T09:09:49.441Z,1015.53
2023-05-22T09:10:49.445Z,1015.53
2023-05-22T09:11:49.444Z,1015.55
2023-05-22T09:12:49.397Z,1015.51
2023-05-22T09:13:49.384Z,1015.53
2023-05-22T09:14:49.370Z,1015.52
2023-05-22T09:15:49.357Z,1015.57
2023-05-22T09:16:49.374Z,1015.53
2023-05-22T09:17:49.374Z,1015.54
2023-05-22T09:18:49.337Z,1015.52
2023-05-22T09:19:49.298Z,1015.54
2023-05-22T09:20:49.279Z,1015.55
2023-05-22T09:21:49.282Z,1015.57
2023-05-22T09:22:49.283Z,1015.57
2023-05-22T09:23:49.257Z,1015.56
2023-05-22T09:24:49.246Z,1015.55
2023-05-22T09:25:49.226Z,1015.58
2023-05-22T09:26:49.223Z,1015.52
2023-05-22T09:27:49.212Z,1015.58
2023-05-22T09:28:49.180Z,1015.55
2023-05-22T09:29:49.170Z,1015.59
2023-05-22T09:30:49.157Z,1015.56
2023-05-22T09:31:49.390Z,1015.57
2023-05-22T09:32:49.173Z,1015.53
2023-05-22T09:33:49.117Z,1015.52
2023-05-22T09:34:49.123Z,1015.56
2023-05-22T09:35:49.089Z,1015.57
2023-05-22T09:36:49.085Z,1015.55
2023-05-22T09:37:49.062Z,1015.53
2023-05-22T09:38:49.050Z,1015.52
2023-05-22T09:39:49.046Z,1015.50
2023-05-22T09:40:49.022Z,1015.50
2023-05-22T09:41:49.273Z,1015.49
2023-05-22T09:42:48.991Z,1015.47
2023-05-22T09:43:49.006Z,1015.48
2023-05-22T09:44:48.993Z,1015.51
2023-05-22T09:45:48.962Z,1015.57
2023-05-22T09:46:48.983Z,1015.54
2023-05-22T09:47:49.014Z,1015.49
2023-05-22T09:48:48.933Z,1015.49
2023-05-22T09:49:48.942Z,1015.47
2023-05-22T09:50:48.914Z,1015.48
2023-05-22T09:51:49.022Z,1015.48
2023-05-22T09:52:48.879Z,1015.50
2023-05-22T09:53:48.864Z,1015.51
2023-05-22T09:54:48.833Z,1015.48
2023-05-22T09:55:48.837Z,1015.49
2023-05-22T09:56:48.829Z,1015.46
2023-05-22T09:57:48.828Z,1015.47
2023-05-22T09:58:48.785Z,1015.45
2023-05-22T09:59:48.792Z,1015.39
2023-05-22T10:00:48.789Z,1015.40
2023-05-22T10:01:48.807Z,1015.41
2023-05-22T10:02:48.769Z,1015.41
2023-05-22T10:03:49.565Z,1015.42
2023-05-22T10:04:48.778Z,1015.38
2023-05-22T10:05:48.708Z,1015.38
2023-05-22T10:06:48.734Z,1015.40
2023-05-22T10:07:48.698Z,1015.39
2023-05-22T10:08:48.662Z,1015.38
2023-05-22T10:09:48.659Z,1015.39
2023-05-22T10:10:48.639Z,1015.39
2023-05-22T10:11:48.653Z,1015.39
2023-05-22T10:12:48.598Z,1015.39
2023-05-22T10:13:48.596Z,1015.42
2023-05-22T10:14:48.624Z,1015.39
2023-05-22T10:15:48.629Z,1015.41
2023-05-22T10:16:48.558Z,1015.38
2023-05-22T10:17:48.578Z,1015.42
2023-05-22T10:18:48.620Z,1015.37
2023-05-22T10:19:48.691Z,1015.38
2023-05-22T10:20:48.543Z,1015.34
2023-05-22T10:21:48.592Z,1015.38
2023-05-22T10:22:48.491Z,1015.31
2023-05-22T10:23:48.473Z,1015.35
2023-05-22T10:24:48.485Z,1015.33
2023-05-22T10:25:48.711Z,1015.33
2023-05-22T10:26:48.418Z,1015.35
2023-05-22T10:27:48.421Z,1015.34
2023-05-22T10:28:48.407Z,1015.31
2023-05-22T10:29:48.412Z,1015.34
2023-05-22T10:30:48.372Z,1015.33
2023-05-22T10:31:48.376Z,1015.30
2023-05-22T10:32:48.405Z,1015.30
2023-05-22T10:33:48.440Z,1015.27
2023-05-22T10:34:48.337Z,1015.31
2023-05-22T10:35:48.329Z,1015.30
2023-05-22T10:36:48.410Z,1015.29
2023-05-22T10:37:48.309Z,1015.26
2023-05-22T10:38:48.281Z,1015.26
2023-05-22T10:39:48.268Z,1015.20
2023-05-22T10:40:48.493Z,1015.22
2023-05-22T10:41:48.230Z,1015.22
2023-05-22T10:42:48.214Z,1015.22
2023-05-22T10:43:48.202Z,1015.20
2023-05-22T10:44:48.208Z,1015.18
2023-05-22T10:45:48.238Z,1015.18
2023-05-22T10:46:48.184Z,1015.17
2023-05-22T10:47:48.229Z,1015.17
2023-05-22T10:48:48.150Z,1015.21
2023-05-22T10:49:48.116Z,1015.16
2023-05-22T10:50:48.099Z,1015.15
2023-05-22T10:51:48.126Z,1015.10
2023-05-22T10:52:48.107Z,1015.09
2023-05-22T10:53:48.087Z,1015.08
2023-05-22T10:54:48.059Z,1015.06
2023-05-22T10:55:48.075Z,1015.05
2023-05-22T10:56:48.073Z,1015.04
2023-05-22T10:57:48.034Z,1015.00
2023-05-22T10:58:48.013Z,1014.94
2023-05-22T10:59:48.002Z,1014.97
2023-05-22T11:00:47.982Z,1014.96
2023-05-22T11:01:48.022Z,1015.01
2023-05-22T11:02:47.981Z,1015.05
2023-05-22T11:03:48.030Z,1015.01
2023-05-22T11:04:48.001Z,1014.98
2023-05-22T11:05:47.933Z,1014.98
2023-05-22T11:06:47.910Z,1015.01
2023-05-22T11:07:47.906Z,1015.06
2023-05-22T11:08:47.902Z,1014.96
2023-05-22T11:09:47.870Z,1014.89
2023-05-22T11:10:47.881Z,1014.93
2023-05-22T11:11:47.884Z,1014.95
2023-05-22T11:12:47.828Z,1014.95
2023-05-22T11:13:47.851Z,1014.95
2023-05-22T11:14:47.812Z,1014.93
2023-05-22T11:15:47.820Z,1014.91
2023-05-22T11:16:47.814Z,1014.91
2023-05-22T11:17:47.808Z,1014.90
2023-05-22T11:18:47.811Z,1014.90
2023-05-22T11:19:47.796Z,1014.84
2023-05-22T11:20:47.746Z,1014.84
2023-05-22T11:21:47.716Z,1014.86
2023-05-22T11:22:47.713Z,1014.81
2023-05-22T11:23:47.690Z,1014.89
2023-05-22T11:24:47.683Z,1014.88
2023-05-22T11:25:47.691Z,1014.88
2023-05-22T11:26:47.657Z,1014.94
2023-05-22T11:27:47.701Z,1014.89
2023-05-22T11:28:47.744Z,1014.93
2023-05-22T11:29:47.634Z,1014.89
2023-05-22T11:30:47.637Z,1014.91
2023-05-22T11:31:47.600Z,1014.89
2023-05-22T11:32:47.595Z,1014.93
2023-05-22T11:33:47.558Z,1014.94
2023-05-22T11:34:47.837Z,1014.89
2023-05-22T11:35:47.540Z,1014.90
2023-05-22T11:36:47.525Z,1014.90
2023-05-22T11:37:47.539Z,1014.87
2023-05-22T11:38:47.488Z,1014.83
2023-05-22T11:39:47.487Z,1014.81
2023-05-22T11:40:47.489Z,1014.81
2023-05-22T11:41:47.469Z,1014.81
2023-05-22T11:42:47.484Z,1014.79
2023-05-22T11:43:47.508Z,1014.82
2023-05-22T11:44:47.444Z,1014.76
2023-05-22T11:45:47.411Z,1014.69
2023-05-22T11:46:47.452Z,1014.70
2023-05-22T11:47:47.477Z,1014.66
2023-05-22T11:48:47.387Z,1014.73
2023-05-22T11:49:47.357Z,1014.68
2023-05-22T11:50:47.533Z,1014.69
2023-05-22T11:51:47.332Z,1014.62
2023-05-22T11:52:47.317Z,1014.65
2023-05-22T11:53:47.338Z,1014.64
2023-05-22T11:54:47.310Z,1014.66
2023-05-22T11:55:47.289Z,1014.64
2023-05-22T11:56:47.287Z,1014.70
2023-05-22T11:57:47.258Z,1014.62
2023-05-22T11:58:47.266Z,1014.63
2023-05-22T11:59:47.243Z,1014.59
2023-05-22T12:00:47.278Z,1014.58
2023-05-22T12:01:47.198Z,1014.59
2023-05-22T12:02:47.334Z,1014.58
2023-05-22T12:03:47.243Z,1014.60
2023-05-22T12:04:47.157Z,1014.60
2023-05-22T12:05:47.143Z,1014.52
2023-05-22T12:06:47.189Z,1014.58